sensor_id;sensor_type;location;lat;lon;timestamp;P1;durP1;ratioP1;P2;durP2;ratioP2
19024;SDS011;9645;51.448;6.260;2023-03-01T00:02:21;14.15;;;7.50;;
19024;SDS011;9645;51.448;6.260;2023-03-01T00:04:48;20.13;;;7.60;;
19024;SDS011;9645;51.448;6.260;2023-03-01T00:07:15;21.30;;;8.43;;
19024;SDS011;9645;51.448;6.260;2023-03-01T00:09:42;18.73;;;7.60;;
19024;SDS011;9645;51.448;6.260;2023-03-01T00:12:12;21.88;;;8.30;;
19024;SDS011;9645;51.448;6.260;2023-03-01T00:14:39;19.58;;;7.93;;
19024;SDS011;9645;51.448;6.260;2023-03-01T00:17:06;21.83;;;8.02;;
19024;SDS011;9645;51.448;6.260;2023-03-01T00:19:33;19.80;;;8.02;;
19024;SDS011;9645;51.448;6.260;2023-03-01T00:22:02;16.00;;;7.63;;
19024;SDS011;9645;51.448;6.260;2023-03-01T00:24:29;16.73;;;7.25;;
19024;SDS011;9645;51.448;6.260;2023-03-01T00:26:56;17.50;;;6.90;;
19024;SDS011;9645;51.448;6.260;2023-03-01T00:29:25;18.13;;;7.32;;
19024;SDS011;9645;51.448;6.260;2023-03-01T00:31:52;17.60;;;7.25;;
19024;SDS011;9645;51.448;6.260;2023-03-01T00:34:19;15.02;;;6.88;;
19024;SDS011;9645;51.448;6.260;2023-03-01T00:36:46;14.75;;;6.85;;
19024;SDS011;9645;51.448;6.260;2023-03-01T00:39:14;17.45;;;7.40;;
19024;SDS011;9645;51.448;6.260;2023-03-01T00:41:41;15.00;;;7.18;;
19024;SDS011;9645;51.448;6.260;2023-03-01T00:44:09;17.98;;;6.63;;
19024;SDS011;9645;51.448;6.260;2023-03-01T00:46:38;14.00;;;6.65;;
19024;SDS011;9645;51.448;6.260;2023-03-01T00:49:05;20.98;;;7.13;;
19024;SDS011;9645;51.448;6.260;2023-03-01T00:51:32;14.20;;;7.07;;
19024;SDS011;9645;51.448;6.260;2023-03-01T00:54:00;20.60;;;8.45;;
19024;SDS011;9645;51.448;6.260;2023-03-01T00:56:28;16.17;;;7.78;;
19024;SDS011;9645;51.448;6.260;2023-03-01T00:58:55;21.10;;;8.75;;
19024;SDS011;9645;51.448;6.260;2023-03-01T01:01:24;19.08;;;8.90;;
19024;SDS011;9645;51.448;6.260;2023-03-01T01:03:57;20.67;;;9.00;;
19024;SDS011;9645;51.448;6.260;2023-03-01T01:06:26;18.20;;;8.35;;
19024;SDS011;9645;51.448;6.260;2023-03-01T01:08:54;23.05;;;9.55;;
19024;SDS011;9645;51.448;6.260;2023-03-01T01:11:23;18.08;;;9.32;;
19024;SDS011;9645;51.448;6.260;2023-03-01T01:13:51;20.27;;;8.65;;
19024;SDS011;9645;51.448;6.260;2023-03-01T01:16:18;18.13;;;7.97;;
19024;SDS011;9645;51.448;6.260;2023-03-01T01:18:47;18.63;;;8.40;;
19024;SDS011;9645;51.448;6.260;2023-03-01T01:21:16;20.35;;;8.75;;
19024;SDS011;9645;51.448;6.260;2023-03-01T01:23:45;17.58;;;8.05;;
19024;SDS011;9645;51.448;6.260;2023-03-01T01:26:13;27.02;;;8.65;;
19024;SDS011;9645;51.448;6.260;2023-03-01T01:28:41;23.65;;;8.65;;
19024;SDS011;9645;51.448;6.260;2023-03-01T01:31:09;22.67;;;7.88;;
19024;SDS011;9645;51.448;6.260;2023-03-01T01:33:36;15.13;;;7.63;;
19024;SDS011;9645;51.448;6.260;2023-03-01T01:36:04;25.70;;;7.65;;
19024;SDS011;9645;51.448;6.260;2023-03-01T01:38:33;16.20;;;7.47;;
19024;SDS011;9645;51.448;6.260;2023-03-01T01:41:01;18.33;;;7.40;;
19024;SDS011;9645;51.448;6.260;2023-03-01T01:43:29;18.23;;;8.00;;
19024;SDS011;9645;51.448;6.260;2023-03-01T01:45:59;17.15;;;6.65;;
19024;SDS011;9645;51.448;6.260;2023-03-01T01:48:32;17.77;;;6.80;;
19024;SDS011;9645;51.448;6.260;2023-03-01T01:51:06;18.92;;;7.30;;
19024;SDS011;9645;51.448;6.260;2023-03-01T01:53:38;21.88;;;7.38;;
19024;SDS011;9645;51.448;6.260;2023-03-01T01:56:07;17.00;;;7.47;;
19024;SDS011;9645;51.448;6.260;2023-03-01T01:58:36;13.93;;;6.28;;
19024;SDS011;9645;51.448;6.260;2023-03-01T02:01:04;18.67;;;6.38;;
19024;SDS011;9645;51.448;6.260;2023-03-01T02:03:32;24.63;;;8.77;;
19024;SDS011;9645;51.448;6.260;2023-03-01T02:06:03;28.05;;;10.77;;
19024;SDS011;9645;51.448;6.260;2023-03-01T02:08:35;30.17;;;11.35;;
19024;SDS011;9645;51.448;6.260;2023-03-01T02:11:07;28.42;;;12.30;;
19024;SDS011;9645;51.448;6.260;2023-03-01T02:13:35;28.33;;;11.95;;
19024;SDS011;9645;51.448;6.260;2023-03-01T02:16:02;22.65;;;9.38;;
19024;SDS011;9645;51.448;6.260;2023-03-01T02:18:30;20.90;;;8.93;;
19024;SDS011;9645;51.448;6.260;2023-03-01T02:21:06;22.77;;;8.65;;
19024;SDS011;9645;51.448;6.260;2023-03-01T02:23:41;15.98;;;7.63;;
19024;SDS011;9645;51.448;6.260;2023-03-01T02:26:11;26.05;;;8.07;;
19024;SDS011;9645;51.448;6.260;2023-03-01T02:28:45;21.35;;;7.68;;
19024;SDS011;9645;51.448;6.260;2023-03-01T02:31:14;17.98;;;7.05;;
19024;SDS011;9645;51.448;6.260;2023-03-01T02:34:01;18.98;;;6.90;;
19024;SDS011;9645;51.448;6.260;2023-03-01T02:36:31;17.42;;;6.50;;
19024;SDS011;9645;51.448;6.260;2023-03-01T02:39:02;23.50;;;7.80;;
19024;SDS011;9645;51.448;6.260;2023-03-01T02:41:32;22.77;;;7.90;;
19024;SDS011;9645;51.448;6.260;2023-03-01T02:44:03;20.75;;;8.20;;
19024;SDS011;9645;51.448;6.260;2023-03-01T02:46:30;20.52;;;7.53;;
19024;SDS011;9645;51.448;6.260;2023-03-01T02:48:58;19.70;;;7.75;;
19024;SDS011;9645;51.448;6.260;2023-03-01T02:51:27;19.25;;;7.22;;
19024;SDS011;9645;51.448;6.260;2023-03-01T02:54:13;16.33;;;7.10;;
19024;SDS011;9645;51.448;6.260;2023-03-01T02:56:47;22.48;;;7.18;;
19024;SDS011;9645;51.448;6.260;2023-03-01T02:59:16;15.77;;;7.07;;
19024;SDS011;9645;51.448;6.260;2023-03-01T03:01:46;22.20;;;8.02;;
19024;SDS011;9645;51.448;6.260;2023-03-01T03:04:14;17.30;;;7.22;;
19024;SDS011;9645;51.448;6.260;2023-03-01T03:06:43;14.00;;;6.47;;
19024;SDS011;9645;51.448;6.260;2023-03-01T03:09:10;20.08;;;8.02;;
19024;SDS011;9645;51.448;6.260;2023-03-01T03:11:38;25.27;;;7.60;;
19024;SDS011;9645;51.448;6.260;2023-03-01T03:14:06;17.55;;;7.43;;
19024;SDS011;9645;51.448;6.260;2023-03-01T03:16:40;21.63;;;8.07;;
19024;SDS011;9645;51.448;6.260;2023-03-01T03:19:08;17.25;;;7.65;;
19024;SDS011;9645;51.448;6.260;2023-03-01T03:21:35;18.90;;;7.32;;
19024;SDS011;9645;51.448;6.260;2023-03-01T03:24:02;20.55;;;7.90;;
19024;SDS011;9645;51.448;6.260;2023-03-01T03:26:30;20.33;;;7.10;;
19024;SDS011;9645;51.448;6.260;2023-03-01T03:28:57;19.85;;;7.35;;
19024;SDS011;9645;51.448;6.260;2023-03-01T03:31:24;19.58;;;7.60;;
19024;SDS011;9645;51.448;6.260;2023-03-01T03:33:52;24.92;;;8.15;;
19024;SDS011;9645;51.448;6.260;2023-03-01T03:36:20;23.50;;;7.90;;
19024;SDS011;9645;51.448;6.260;2023-03-01T03:38:49;17.80;;;6.90;;
19024;SDS011;9645;51.448;6.260;2023-03-01T03:41:16;17.90;;;7.63;;
19024;SDS011;9645;51.448;6.260;2023-03-01T03:43:44;24.80;;;7.45;;
19024;SDS011;9645;51.448;6.260;2023-03-01T03:46:11;23.80;;;7.65;;
19024;SDS011;9645;51.448;6.260;2023-03-01T03:48:39;16.55;;;7.30;;
19024;SDS011;9645;51.448;6.260;2023-03-01T03:51:10;17.73;;;7.45;;
19024;SDS011;9645;51.448;6.260;2023-03-01T03:53:39;26.20;;;9.07;;
19024;SDS011;9645;51.448;6.260;2023-03-01T03:56:06;18.58;;;6.90;;
19024;SDS011;9645;51.448;6.260;2023-03-01T03:58:34;17.17;;;6.55;;
19024;SDS011;9645;51.448;6.260;2023-03-01T04:01:01;19.88;;;7.00;;
19024;SDS011;9645;51.448;6.260;2023-03-01T04:03:29;19.35;;;7.20;;
19024;SDS011;9645;51.448;6.260;2023-03-01T04:05:57;14.80;;;7.10;;
19024;SDS011;9645;51.448;6.260;2023-03-01T04:08:26;16.17;;;7.30;;
19024;SDS011;9645;51.448;6.260;2023-03-01T04:10:57;23.38;;;7.40;;
19024;SDS011;9645;51.448;6.260;2023-03-01T04:13:46;14.73;;;6.65;;
19024;SDS011;9645;51.448;6.260;2023-03-01T04:16:13;16.70;;;7.30;;
19024;SDS011;9645;51.448;6.260;2023-03-01T04:18:40;14.80;;;6.65;;
19024;SDS011;9645;51.448;6.260;2023-03-01T04:21:07;14.85;;;6.50;;
19024;SDS011;9645;51.448;6.260;2023-03-01T04:23:36;17.88;;;6.93;;
19024;SDS011;9645;51.448;6.260;2023-03-01T04:26:06;23.08;;;8.00;;
19024;SDS011;9645;51.448;6.260;2023-03-01T04:28:33;18.75;;;6.82;;
19024;SDS011;9645;51.448;6.260;2023-03-01T04:31:02;15.57;;;7.13;;
19024;SDS011;9645;51.448;6.260;2023-03-01T04:33:38;22.40;;;8.60;;
19024;SDS011;9645;51.448;6.260;2023-03-01T04:36:07;26.20;;;9.02;;
19024;SDS011;9645;51.448;6.260;2023-03-01T04:38:35;23.13;;;9.32;;
19024;SDS011;9645;51.448;6.260;2023-03-01T04:41:04;21.13;;;7.90;;
19024;SDS011;9645;51.448;6.260;2023-03-01T04:43:32;24.25;;;9.55;;
19024;SDS011;9645;51.448;6.260;2023-03-01T04:46:02;23.55;;;8.18;;
19024;SDS011;9645;51.448;6.260;2023-03-01T04:48:31;16.25;;;7.05;;
19024;SDS011;9645;51.448;6.260;2023-03-01T04:50:58;28.15;;;9.00;;
19024;SDS011;9645;51.448;6.260;2023-03-01T04:53:26;20.00;;;8.38;;
19024;SDS011;9645;51.448;6.260;2023-03-01T04:55:55;20.42;;;8.27;;
19024;SDS011;9645;51.448;6.260;2023-03-01T04:58:22;27.73;;;9.82;;
19024;SDS011;9645;51.448;6.260;2023-03-01T05:00:49;23.98;;;10.82;;
19024;SDS011;9645;51.448;6.260;2023-03-01T05:03:16;28.75;;;10.77;;
19024;SDS011;9645;51.448;6.260;2023-03-01T05:05:44;29.55;;;10.07;;
19024;SDS011;9645;51.448;6.260;2023-03-01T05:08:12;25.20;;;9.63;;
19024;SDS011;9645;51.448;6.260;2023-03-01T05:10:43;29.58;;;9.98;;
19024;SDS011;9645;51.448;6.260;2023-03-01T05:13:13;27.52;;;9.25;;
19024;SDS011;9645;51.448;6.260;2023-03-01T05:15:46;30.63;;;9.45;;
19024;SDS011;9645;51.448;6.260;2023-03-01T05:18:14;24.95;;;9.75;;
19024;SDS011;9645;51.448;6.260;2023-03-01T05:20:41;23.95;;;8.82;;
19024;SDS011;9645;51.448;6.260;2023-03-01T05:23:09;22.65;;;8.98;;
19024;SDS011;9645;51.448;6.260;2023-03-01T05:25:37;23.25;;;9.05;;
19024;SDS011;9645;51.448;6.260;2023-03-01T05:28:05;21.88;;;8.75;;
19024;SDS011;9645;51.448;6.260;2023-03-01T05:30:37;23.25;;;7.97;;
19024;SDS011;9645;51.448;6.260;2023-03-01T05:33:05;21.15;;;8.30;;
19024;SDS011;9645;51.448;6.260;2023-03-01T05:35:38;24.85;;;7.88;;
19024;SDS011;9645;51.448;6.260;2023-03-01T05:38:06;16.27;;;7.63;;
19024;SDS011;9645;51.448;6.260;2023-03-01T05:40:33;19.05;;;6.90;;
19024;SDS011;9645;51.448;6.260;2023-03-01T05:43:01;31.98;;;8.25;;
19024;SDS011;9645;51.448;6.260;2023-03-01T05:45:30;23.17;;;8.63;;
19024;SDS011;9645;51.448;6.260;2023-03-01T05:48:00;22.42;;;7.75;;
19024;SDS011;9645;51.448;6.260;2023-03-01T05:50:29;25.70;;;8.30;;
19024;SDS011;9645;51.448;6.260;2023-03-01T05:53:00;21.33;;;8.40;;
19024;SDS011;9645;51.448;6.260;2023-03-01T05:55:29;32.40;;;9.77;;
19024;SDS011;9645;51.448;6.260;2023-03-01T05:57:57;38.47;;;10.60;;
19024;SDS011;9645;51.448;6.260;2023-03-01T06:00:25;29.00;;;10.15;;
19024;SDS011;9645;51.448;6.260;2023-03-01T06:02:53;21.30;;;9.13;;
19024;SDS011;9645;51.448;6.260;2023-03-01T06:05:22;52.47;;;8.45;;
19024;SDS011;9645;51.448;6.260;2023-03-01T06:07:49;23.60;;;8.13;;
19024;SDS011;9645;51.448;6.260;2023-03-01T06:10:17;22.42;;;8.10;;
19024;SDS011;9645;51.448;6.260;2023-03-01T06:12:45;17.80;;;7.72;;
19024;SDS011;9645;51.448;6.260;2023-03-01T06:15:13;22.38;;;8.13;;
19024;SDS011;9645;51.448;6.260;2023-03-01T06:17:42;17.90;;;7.57;;
19024;SDS011;9645;51.448;6.260;2023-03-01T06:20:12;22.65;;;7.82;;
19024;SDS011;9645;51.448;6.260;2023-03-01T06:22:42;23.02;;;8.70;;
19024;SDS011;9645;51.448;6.260;2023-03-01T06:25:09;22.10;;;8.30;;
19024;SDS011;9645;51.448;6.260;2023-03-01T06:27:37;21.23;;;8.20;;
19024;SDS011;9645;51.448;6.260;2023-03-01T06:30:05;18.50;;;7.70;;
19024;SDS011;9645;51.448;6.260;2023-03-01T06:32:35;24.65;;;9.15;;
19024;SDS011;9645;51.448;6.260;2023-03-01T06:35:02;19.55;;;8.55;;
19024;SDS011;9645;51.448;6.260;2023-03-01T06:37:29;17.98;;;7.63;;
19024;SDS011;9645;51.448;6.260;2023-03-01T06:39:58;24.70;;;8.55;;
19024;SDS011;9645;51.448;6.260;2023-03-01T06:42:29;21.90;;;8.45;;
19024;SDS011;9645;51.448;6.260;2023-03-01T06:44:57;21.63;;;8.73;;
19024;SDS011;9645;51.448;6.260;2023-03-01T06:47:24;28.30;;;8.70;;
19024;SDS011;9645;51.448;6.260;2023-03-01T06:49:51;19.83;;;8.55;;
19024;SDS011;9645;51.448;6.260;2023-03-01T06:52:18;23.95;;;9.15;;
19024;SDS011;9645;51.448;6.260;2023-03-01T06:54:45;19.77;;;8.43;;
19024;SDS011;9645;51.448;6.260;2023-03-01T06:57:14;21.38;;;8.13;;
19024;SDS011;9645;51.448;6.260;2023-03-01T06:59:41;22.08;;;8.52;;
19024;SDS011;9645;51.448;6.260;2023-03-01T07:02:09;21.23;;;7.80;;
19024;SDS011;9645;51.448;6.260;2023-03-01T07:04:37;19.63;;;7.45;;
19024;SDS011;9645;51.448;6.260;2023-03-01T07:07:04;19.77;;;7.95;;
19024;SDS011;9645;51.448;6.260;2023-03-01T07:09:31;24.65;;;8.82;;
19024;SDS011;9645;51.448;6.260;2023-03-01T07:11:59;23.13;;;9.23;;
19024;SDS011;9645;51.448;6.260;2023-03-01T07:14:27;26.40;;;10.48;;
19024;SDS011;9645;51.448;6.260;2023-03-01T07:16:55;30.40;;;10.95;;
19024;SDS011;9645;51.448;6.260;2023-03-01T07:19:22;31.90;;;10.55;;
19024;SDS011;9645;51.448;6.260;2023-03-01T07:21:49;18.88;;;9.18;;
19024;SDS011;9645;51.448;6.260;2023-03-01T07:24:16;18.02;;;8.93;;
19024;SDS011;9645;51.448;6.260;2023-03-01T07:26:43;17.33;;;8.98;;
19024;SDS011;9645;51.448;6.260;2023-03-01T07:29:11;18.27;;;8.50;;
19024;SDS011;9645;51.448;6.260;2023-03-01T07:31:39;19.67;;;9.02;;
19024;SDS011;9645;51.448;6.260;2023-03-01T07:34:06;16.63;;;8.10;;
19024;SDS011;9645;51.448;6.260;2023-03-01T07:36:33;17.33;;;8.13;;
19024;SDS011;9645;51.448;6.260;2023-03-01T07:39:00;21.25;;;8.82;;
19024;SDS011;9645;51.448;6.260;2023-03-01T07:41:28;15.15;;;7.20;;
19024;SDS011;9645;51.448;6.260;2023-03-01T07:43:55;18.38;;;8.43;;
19024;SDS011;9645;51.448;6.260;2023-03-01T07:46:22;18.88;;;8.32;;
19024;SDS011;9645;51.448;6.260;2023-03-01T07:48:51;20.85;;;8.43;;
19024;SDS011;9645;51.448;6.260;2023-03-01T07:51:18;21.73;;;8.40;;
19024;SDS011;9645;51.448;6.260;2023-03-01T07:53:46;15.60;;;7.85;;
19024;SDS011;9645;51.448;6.260;2023-03-01T07:56:14;19.25;;;8.82;;
19024;SDS011;9645;51.448;6.260;2023-03-01T07:58:43;19.35;;;8.68;;
19024;SDS011;9645;51.448;6.260;2023-03-01T08:01:12;24.92;;;9.90;;
19024;SDS011;9645;51.448;6.260;2023-03-01T08:03:40;17.27;;;8.52;;
19024;SDS011;9645;51.448;6.260;2023-03-01T08:06:10;18.30;;;8.40;;
19024;SDS011;9645;51.448;6.260;2023-03-01T08:08:38;21.85;;;11.48;;
19024;SDS011;9645;51.448;6.260;2023-03-01T08:11:05;29.30;;;14.57;;
19024;SDS011;9645;51.448;6.260;2023-03-01T08:13:34;24.23;;;10.90;;
19024;SDS011;9645;51.448;6.260;2023-03-01T08:16:01;21.10;;;9.30;;
19024;SDS011;9645;51.448;6.260;2023-03-01T08:18:29;16.80;;;8.63;;
19024;SDS011;9645;51.448;6.260;2023-03-01T08:20:56;17.97;;;9.20;;
19024;SDS011;9645;51.448;6.260;2023-03-01T08:23:29;15.93;;;8.73;;
19024;SDS011;9645;51.448;6.260;2023-03-01T08:26:02;16.00;;;8.77;;
19024;SDS011;9645;51.448;6.260;2023-03-01T08:28:31;17.80;;;9.30;;
19024;SDS011;9645;51.448;6.260;2023-03-01T08:30:58;12.67;;;8.10;;
19024;SDS011;9645;51.448;6.260;2023-03-01T08:33:25;17.50;;;8.70;;
19024;SDS011;9645;51.448;6.260;2023-03-01T08:35:52;17.63;;;8.30;;
19024;SDS011;9645;51.448;6.260;2023-03-01T08:38:19;14.40;;;8.77;;
19024;SDS011;9645;51.448;6.260;2023-03-01T08:40:47;13.73;;;8.53;;
19024;SDS011;9645;51.448;6.260;2023-03-01T08:43:14;12.67;;;8.40;;
19024;SDS011;9645;51.448;6.260;2023-03-01T08:45:42;14.57;;;7.97;;
19024;SDS011;9645;51.448;6.260;2023-03-01T08:48:09;12.97;;;8.13;;
19024;SDS011;9645;51.448;6.260;2023-03-01T08:50:36;15.90;;;8.80;;
19024;SDS011;9645;51.448;6.260;2023-03-01T08:53:04;12.60;;;8.43;;
19024;SDS011;9645;51.448;6.260;2023-03-01T08:55:31;11.87;;;8.53;;
19024;SDS011;9645;51.448;6.260;2023-03-01T08:57:59;13.57;;;8.53;;
19024;SDS011;9645;51.448;6.260;2023-03-01T09:00:26;15.93;;;8.97;;
19024;SDS011;9645;51.448;6.260;2023-03-01T09:02:53;16.23;;;8.60;;
19024;SDS011;9645;51.448;6.260;2023-03-01T09:05:20;13.97;;;8.87;;
19024;SDS011;9645;51.448;6.260;2023-03-01T09:07:47;12.23;;;8.07;;
19024;SDS011;9645;51.448;6.260;2023-03-01T09:10:15;14.13;;;9.30;;
19024;SDS011;9645;51.448;6.260;2023-03-01T09:12:42;15.90;;;9.40;;
19024;SDS011;9645;51.448;6.260;2023-03-01T09:15:11;12.30;;;8.80;;
19024;SDS011;9645;51.448;6.260;2023-03-01T09:17:38;15.13;;;9.67;;
19024;SDS011;9645;51.448;6.260;2023-03-01T09:20:06;15.80;;;9.67;;
19024;SDS011;9645;51.448;6.260;2023-03-01T09:22:34;15.10;;;9.63;;
19024;SDS011;9645;51.448;6.260;2023-03-01T09:25:01;14.67;;;9.77;;
19024;SDS011;9645;51.448;6.260;2023-03-01T09:27:29;15.83;;;9.30;;
19024;SDS011;9645;51.448;6.260;2023-03-01T09:29:56;16.70;;;9.50;;
19024;SDS011;9645;51.448;6.260;2023-03-01T09:32:24;14.73;;;9.70;;
19024;SDS011;9645;51.448;6.260;2023-03-01T09:34:53;20.07;;;9.57;;
19024;SDS011;9645;51.448;6.260;2023-03-01T09:37:29;15.30;;;9.30;;
19024;SDS011;9645;51.448;6.260;2023-03-01T09:39:57;24.23;;;10.50;;
19024;SDS011;9645;51.448;6.260;2023-03-01T09:42:24;18.00;;;10.13;;
19024;SDS011;9645;51.448;6.260;2023-03-01T09:44:53;19.07;;;10.30;;
19024;SDS011;9645;51.448;6.260;2023-03-01T09:47:26;18.67;;;9.33;;
19024;SDS011;9645;51.448;6.260;2023-03-01T09:49:58;19.70;;;9.80;;
19024;SDS011;9645;51.448;6.260;2023-03-01T09:52:33;13.40;;;9.20;;
19024;SDS011;9645;51.448;6.260;2023-03-01T09:55:08;21.20;;;9.17;;
19024;SDS011;9645;51.448;6.260;2023-03-01T09:57:39;14.97;;;10.30;;
19024;SDS011;9645;51.448;6.260;2023-03-01T10:00:15;19.67;;;10.40;;
19024;SDS011;9645;51.448;6.260;2023-03-01T10:02:59;18.47;;;11.40;;
19024;SDS011;9645;51.448;6.260;2023-03-01T10:05:37;15.10;;;10.17;;
19024;SDS011;9645;51.448;6.260;2023-03-01T10:08:24;16.50;;;10.40;;
19024;SDS011;9645;51.448;6.260;2023-03-01T10:10:58;23.23;;;11.13;;
19024;SDS011;9645;51.448;6.260;2023-03-01T10:13:28;18.90;;;11.30;;
19024;SDS011;9645;51.448;6.260;2023-03-01T10:16:03;15.83;;;10.73;;
19024;SDS011;9645;51.448;6.260;2023-03-01T10:18:37;22.43;;;11.17;;
19024;SDS011;9645;51.448;6.260;2023-03-01T10:21:12;16.00;;;10.03;;
19024;SDS011;9645;51.448;6.260;2023-03-01T10:23:42;18.03;;;10.20;;
19024;SDS011;9645;51.448;6.260;2023-03-01T10:26:12;17.43;;;10.20;;
19024;SDS011;9645;51.448;6.260;2023-03-01T10:29:02;25.43;;;10.80;;
19024;SDS011;9645;51.448;6.260;2023-03-01T10:31:36;19.10;;;9.83;;
19024;SDS011;9645;51.448;6.260;2023-03-01T10:34:10;18.57;;;9.83;;
19024;SDS011;9645;51.448;6.260;2023-03-01T10:36:39;19.00;;;9.30;;
19024;SDS011;9645;51.448;6.260;2023-03-01T10:39:13;15.13;;;9.87;;
19024;SDS011;9645;51.448;6.260;2023-03-01T10:41:52;15.80;;;9.77;;
19024;SDS011;9645;51.448;6.260;2023-03-01T10:44:35;15.90;;;9.80;;
19024;SDS011;9645;51.448;6.260;2023-03-01T10:47:15;18.33;;;10.23;;
19024;SDS011;9645;51.448;6.260;2023-03-01T10:49:58;24.13;;;10.13;;
19024;SDS011;9645;51.448;6.260;2023-03-01T10:52:28;15.90;;;9.33;;
19024;SDS011;9645;51.448;6.260;2023-03-01T10:54:58;14.20;;;9.80;;
19024;SDS011;9645;51.448;6.260;2023-03-01T10:57:29;15.67;;;10.43;;
19024;SDS011;9645;51.448;6.260;2023-03-01T11:00:19;14.53;;;9.27;;
19024;SDS011;9645;51.448;6.260;2023-03-01T11:02:51;19.27;;;10.50;;
19024;SDS011;9645;51.448;6.260;2023-03-01T11:05:30;14.27;;;9.67;;
19024;SDS011;9645;51.448;6.260;2023-03-01T11:07:59;18.37;;;9.57;;
19024;SDS011;9645;51.448;6.260;2023-03-01T11:10:28;17.27;;;10.00;;
19024;SDS011;9645;51.448;6.260;2023-03-01T11:13:07;14.60;;;9.33;;
19024;SDS011;9645;51.448;6.260;2023-03-01T11:15:35;15.17;;;10.30;;
19024;SDS011;9645;51.448;6.260;2023-03-01T11:18:02;18.80;;;9.50;;
19024;SDS011;9645;51.448;6.260;2023-03-01T11:20:32;13.53;;;9.23;;
19024;SDS011;9645;51.448;6.260;2023-03-01T11:23:03;12.60;;;8.47;;
19024;SDS011;9645;51.448;6.260;2023-03-01T11:25:35;16.90;;;9.73;;
19024;SDS011;9645;51.448;6.260;2023-03-01T11:28:06;19.43;;;9.33;;
19024;SDS011;9645;51.448;6.260;2023-03-01T11:30:39;17.67;;;9.33;;
19024;SDS011;9645;51.448;6.260;2023-03-01T11:33:13;14.20;;;9.10;;
19024;SDS011;9645;51.448;6.260;2023-03-01T11:35:47;14.50;;;9.37;;
19024;SDS011;9645;51.448;6.260;2023-03-01T11:38:21;14.80;;;8.97;;
19024;SDS011;9645;51.448;6.260;2023-03-01T11:40:50;14.80;;;8.70;;
19024;SDS011;9645;51.448;6.260;2023-03-01T11:43:21;11.13;;;8.57;;
19024;SDS011;9645;51.448;6.260;2023-03-01T11:45:58;14.10;;;9.57;;
19024;SDS011;9645;51.448;6.260;2023-03-01T11:48:32;15.30;;;10.07;;
19024;SDS011;9645;51.448;6.260;2023-03-01T11:51:07;12.30;;;8.93;;
19024;SDS011;9645;51.448;6.260;2023-03-01T11:53:49;15.00;;;9.13;;
19024;SDS011;9645;51.448;6.260;2023-03-01T11:56:21;16.40;;;8.80;;
19024;SDS011;9645;51.448;6.260;2023-03-01T11:58:55;15.53;;;8.70;;
19024;SDS011;9645;51.448;6.260;2023-03-01T12:01:28;14.70;;;9.50;;
19024;SDS011;9645;51.448;6.260;2023-03-01T12:04:08;12.60;;;8.80;;
19024;SDS011;9645;51.448;6.260;2023-03-01T12:06:42;11.40;;;8.47;;
19024;SDS011;9645;51.448;6.260;2023-03-01T12:09:16;14.97;;;9.10;;
19024;SDS011;9645;51.448;6.260;2023-03-01T12:11:50;12.70;;;8.80;;
19024;SDS011;9645;51.448;6.260;2023-03-01T12:14:34;13.90;;;8.33;;
19024;SDS011;9645;51.448;6.260;2023-03-01T12:17:22;17.30;;;9.27;;
19024;SDS011;9645;51.448;6.260;2023-03-01T12:20:12;14.60;;;8.13;;
19024;SDS011;9645;51.448;6.260;2023-03-01T12:22:48;14.03;;;7.80;;
19024;SDS011;9645;51.448;6.260;2023-03-01T12:25:30;10.40;;;7.30;;
19024;SDS011;9645;51.448;6.260;2023-03-01T12:28:18;13.30;;;8.00;;
19024;SDS011;9645;51.448;6.260;2023-03-01T12:31:01;12.03;;;7.63;;
19024;SDS011;9645;51.448;6.260;2023-03-01T12:33:54;12.30;;;7.47;;
19024;SDS011;9645;51.448;6.260;2023-03-01T12:36:31;12.97;;;8.17;;
19024;SDS011;9645;51.448;6.260;2023-03-01T12:39:22;12.80;;;7.90;;
19024;SDS011;9645;51.448;6.260;2023-03-01T12:42:01;12.37;;;7.80;;
19024;SDS011;9645;51.448;6.260;2023-03-01T12:44:39;12.03;;;7.53;;
19024;SDS011;9645;51.448;6.260;2023-03-01T12:47:20;11.10;;;7.03;;
19024;SDS011;9645;51.448;6.260;2023-03-01T12:49:55;11.10;;;8.10;;
19024;SDS011;9645;51.448;6.260;2023-03-01T12:52:28;11.77;;;7.93;;
19024;SDS011;9645;51.448;6.260;2023-03-01T12:55:06;10.83;;;7.50;;
19024;SDS011;9645;51.448;6.260;2023-03-01T12:57:46;13.47;;;8.67;;
19024;SDS011;9645;51.448;6.260;2023-03-01T13:00:22;12.47;;;8.13;;
19024;SDS011;9645;51.448;6.260;2023-03-01T13:02:55;12.10;;;7.07;;
19024;SDS011;9645;51.448;6.260;2023-03-01T13:05:29;13.73;;;8.30;;
19024;SDS011;9645;51.448;6.260;2023-03-01T13:08:08;13.13;;;7.97;;
19024;SDS011;9645;51.448;6.260;2023-03-01T13:10:46;11.47;;;7.63;;
19024;SDS011;9645;51.448;6.260;2023-03-01T13:13:19;12.63;;;7.90;;
19024;SDS011;9645;51.448;6.260;2023-03-01T13:15:47;13.20;;;7.17;;
19024;SDS011;9645;51.448;6.260;2023-03-01T13:21:07;15.43;;;8.03;;
19024;SDS011;9645;51.448;6.260;2023-03-01T13:23:35;10.60;;;6.67;;
19024;SDS011;9645;51.448;6.260;2023-03-01T13:26:10;14.90;;;7.63;;
19024;SDS011;9645;51.448;6.260;2023-03-01T13:28:40;12.80;;;7.17;;
19024;SDS011;9645;51.448;6.260;2023-03-01T13:40:04;15.13;;;8.10;;
19024;SDS011;9645;51.448;6.260;2023-03-01T13:42:49;11.90;;;7.77;;
19024;SDS011;9645;51.448;6.260;2023-03-01T13:45:21;12.63;;;7.80;;
19024;SDS011;9645;51.448;6.260;2023-03-01T13:47:56;14.33;;;8.10;;
19024;SDS011;9645;51.448;6.260;2023-03-01T13:50:27;12.43;;;7.40;;
19024;SDS011;9645;51.448;6.260;2023-03-01T13:52:58;12.10;;;8.00;;
19024;SDS011;9645;51.448;6.260;2023-03-01T13:55:30;12.87;;;7.20;;
19024;SDS011;9645;51.448;6.260;2023-03-01T13:58:14;13.90;;;7.90;;
19024;SDS011;9645;51.448;6.260;2023-03-01T14:00:44;18.70;;;8.30;;
19024;SDS011;9645;51.448;6.260;2023-03-01T14:03:13;20.90;;;8.27;;
19024;SDS011;9645;51.448;6.260;2023-03-01T14:05:42;12.70;;;6.80;;
19024;SDS011;9645;51.448;6.260;2023-03-01T14:08:20;14.43;;;8.73;;
19024;SDS011;9645;51.448;6.260;2023-03-01T14:17:13;16.90;;;7.43;;
19024;SDS011;9645;51.448;6.260;2023-03-01T14:19:54;15.05;;;7.75;;
19024;SDS011;9645;51.448;6.260;2023-03-01T14:22:23;14.07;;;7.25;;
19024;SDS011;9645;51.448;6.260;2023-03-01T14:24:54;15.77;;;7.72;;
19024;SDS011;9645;51.448;6.260;2023-03-01T14:27:23;15.65;;;7.15;;
19024;SDS011;9645;51.448;6.260;2023-03-01T14:29:56;19.73;;;7.25;;
19024;SDS011;9645;51.448;6.260;2023-03-01T14:32:26;13.70;;;6.63;;
19024;SDS011;9645;51.448;6.260;2023-03-01T14:34:55;16.27;;;7.93;;
19024;SDS011;9645;51.448;6.260;2023-03-01T14:37:24;14.10;;;7.70;;
19024;SDS011;9645;51.448;6.260;2023-03-01T14:39:53;14.50;;;7.53;;
19024;SDS011;9645;51.448;6.260;2023-03-01T14:42:22;17.30;;;8.27;;
19024;SDS011;9645;51.448;6.260;2023-03-01T14:44:52;16.42;;;7.55;;
19024;SDS011;9645;51.448;6.260;2023-03-01T14:47:25;12.95;;;6.85;;
19024;SDS011;9645;51.448;6.260;2023-03-01T14:49:58;13.65;;;7.18;;
19024;SDS011;9645;51.448;6.260;2023-03-01T14:52:31;19.27;;;8.25;;
19024;SDS011;9645;51.448;6.260;2023-03-01T14:55:01;13.02;;;7.07;;
19024;SDS011;9645;51.448;6.260;2023-03-01T14:57:31;15.93;;;7.47;;
19024;SDS011;9645;51.448;6.260;2023-03-01T14:59:59;18.80;;;8.68;;
19024;SDS011;9645;51.448;6.260;2023-03-01T15:02:31;20.52;;;8.43;;
19024;SDS011;9645;51.448;6.260;2023-03-01T15:05:01;20.23;;;8.10;;
19024;SDS011;9645;51.448;6.260;2023-03-01T15:07:31;15.82;;;8.10;;
19024;SDS011;9645;51.448;6.260;2023-03-01T15:10:02;17.67;;;8.27;;
19024;SDS011;9645;51.448;6.260;2023-03-01T15:12:38;16.45;;;8.20;;
19024;SDS011;9645;51.448;6.260;2023-03-01T15:15:22;22.08;;;8.63;;
19024;SDS011;9645;51.448;6.260;2023-03-01T15:18:02;18.92;;;8.75;;
19024;SDS011;9645;51.448;6.260;2023-03-01T15:20:31;18.58;;;8.52;;
19024;SDS011;9645;51.448;6.260;2023-03-01T15:23:01;19.75;;;8.85;;
19024;SDS011;9645;51.448;6.260;2023-03-01T15:25:30;22.92;;;9.20;;